createdAt,value
2022-09-10T00:00:39.770Z,101325.84
2022-09-10T00:03:09.563Z,101322.94
2022-09-10T00:05:41.707Z,101322.72
2022-09-10T00:08:10.471Z,101314.28
2022-09-10T00:10:45.297Z,101319.31
2022-09-10T00:13:16.156Z,101323.69
2022-09-10T00:15:47.606Z,101333.56
2022-09-10T00:18:18.300Z,101332.50
2022-09-10T00:20:48.067Z,101339.63
2022-09-10T00:23:18.145Z,101333.56
2022-09-10T00:25:49.635Z,101336.81
2022-09-10T00:28:17.909Z,101333.28
2022-09-10T00:30:47.888Z,101332.66
2022-09-10T00:33:18.388Z,101340.00
2022-09-10T00:35:47.715Z,101335.88
2022-09-10T00:38:18.453Z,101339.50
2022-09-10T00:40:48.374Z,101331.44
2022-09-10T00:43:21.579Z,101336.72
2022-09-10T00:45:53.699Z,101336.38
2022-09-10T00:48:27.749Z,101339.44
2022-09-10T00:51:01.283Z,101338.81
2022-09-10T00:53:30.569Z,101331.91
2022-09-10T00:56:05.613Z,101330.63
2022-09-10T00:58:34.568Z,101331.84
2022-09-10T01:01:04.883Z,101325.22
2022-09-10T01:03:33.893Z,101330.19
2022-09-10T01:06:03.339Z,101327.88
2022-09-10T01:08:32.196Z,101331.41
2022-09-10T01:11:16.863Z,101329.47
2022-09-10T01:14:01.484Z,101334.41
2022-09-10T01:16:38.543Z,101333.78
2022-09-10T01:19:24.489Z,101333.78
2022-09-10T01:22:06.726Z,101340.03
2022-09-10T01:24:56.094Z,101330.16
2022-09-10T01:27:41.517Z,101332.59
2022-09-10T01:30:14.909Z,101332.34
2022-09-10T01:33:02.130Z,101346.38
2022-09-10T01:35:38.421Z,101344.56
2022-09-10T01:38:13.891Z,101352.13
2022-09-10T01:40:44.147Z,101340.69
2022-09-10T01:43:15.196Z,101342.66
2022-09-10T01:45:54.772Z,101341.03
2022-09-10T01:49:00.056Z,101347.91
2022-09-10T01:51:37.321Z,101352.81
2022-09-10T01:54:25.910Z,101354.06
2022-09-10T01:57:06.446Z,101357.31
2022-09-10T01:59:45.089Z,101359.09
2022-09-10T02:02:19.993Z,101357.03
2022-09-10T02:04:50.790Z,101358.34
2022-09-10T02:07:23.926Z,101350.72
2022-09-10T02:09:53.465Z,101361.53
2022-09-10T02:12:24.065Z,101360.19
2022-09-10T02:14:56.587Z,101363.22
2022-09-10T02:17:31.190Z,101360.38
2022-09-10T02:20:02.389Z,101362.06
2022-09-10T02:22:33.827Z,101354.31
2022-09-10T02:25:02.066Z,101363.69
2022-09-10T02:27:30.981Z,101364.53
2022-09-10T02:30:01.809Z,101369.53
2022-09-10T02:32:30.625Z,101364.91
2022-09-10T02:34:59.376Z,101361.03
2022-09-10T02:37:28.441Z,101363.75
2022-09-10T02:39:57.048Z,101367.25
2022-09-10T02:42:27.158Z,101358.38
2022-09-10T02:44:56.788Z,101362.78
2022-09-10T02:47:27.133Z,101363.66
2022-09-10T02:49:55.663Z,101361.97
2022-09-10T02:52:24.364Z,101364.59
2022-09-10T02:54:53.153Z,101365.91
2022-09-10T02:57:25.677Z,101374.47
2022-09-10T02:59:54.391Z,101371.94
2022-09-10T03:02:23.070Z,101368.41
2022-09-10T03:04:52.961Z,101370.22
2022-09-10T03:07:21.332Z,101368.41
2022-09-10T03:09:49.999Z,101375.63
2022-09-10T03:12:19.011Z,101363.38
2022-09-10T03:14:48.960Z,101368.53
2022-09-10T03:17:17.584Z,101361.56
2022-09-10T03:19:45.948Z,101363.56
2022-09-10T03:22:17.204Z,101365.06
2022-09-10T03:24:47.324Z,101364.78
2022-09-10T03:27:16.549Z,101364.34
2022-09-10T03:29:45.483Z,101361.38
2022-09-10T03:32:14.293Z,101350.44
2022-09-10T03:34:43.136Z,101342.63
2022-09-10T03:37:12.806Z,101347.69
2022-09-10T03:39:43.268Z,101343.56
2022-09-10T03:42:12.500Z,101340.41
2022-09-10T03:44:41.031Z,101340.72
2022-09-10T03:47:12.860Z,101346.53
2022-09-10T03:49:41.712Z,101347.28
2022-09-10T03:52:12.879Z,101350.97
2022-09-10T03:54:43.125Z,101344.97
2022-09-10T03:57:12.028Z,101348.66
2022-09-10T03:59:41.717Z,101351.13
2022-09-10T04:02:10.822Z,101347.94
2022-09-10T04:04:41.025Z,101348.91
2022-09-10T04:07:10.924Z,101349.22
2022-09-10T04:09:39.664Z,101345.34
2022-09-10T04:12:10.030Z,101343.19
2022-09-10T04:14:38.411Z,101341.19
2022-09-10T04:17:07.958Z,101344.56
2022-09-10T04:19:36.761Z,101349.22
2022-09-10T04:22:05.591Z,101346.69
2022-09-10T04:24:35.461Z,101353.44
2022-09-10T04:27:04.447Z,101357.69
2022-09-10T04:29:34.368Z,101360.88
2022-09-10T04:32:03.633Z,101362.56
2022-09-10T04:34:32.135Z,101365.50
2022-09-10T04:37:00.571Z,101375.13
2022-09-10T04:39:29.059Z,101374.41
2022-09-10T04:41:58.540Z,101386.13
2022-09-10T04:44:29.667Z,101391.41
2022-09-10T04:46:59.601Z,101395.94
2022-09-10T04:49:29.454Z,101401.84
2022-09-10T04:51:57.888Z,101398.06
2022-09-10T04:54:26.598Z,101402.06
2022-09-10T04:56:57.653Z,101402.16
2022-09-10T04:59:26.284Z,101399.75
2022-09-10T05:01:55.009Z,101395.50
2022-09-10T05:04:25.003Z,101399.81
2022-09-10T05:06:53.903Z,101406.28
2022-09-10T05:09:22.406Z,101406.25
2022-09-10T05:11:50.744Z,101410.56
2022-09-10T05:14:20.543Z,101413.31
2022-09-10T05:16:49.317Z,101415.97
2022-09-10T05:19:19.033Z,101419.88
2022-09-10T05:21:49.857Z,101414.81
2022-09-10T05:24:18.403Z,101428.66
2022-09-10T05:26:46.881Z,101428.34
2022-09-10T05:29:15.374Z,101429.19
2022-09-10T05:31:44.794Z,101425.63
2022-09-10T05:34:13.546Z,101423.59
2022-09-10T05:36:43.057Z,101426.91
2022-09-10T05:39:13.093Z,101434.00
2022-09-10T05:41:41.852Z,101436.75
2022-09-10T05:44:10.384Z,101433.56
2022-09-10T05:46:38.920Z,101428.66
2022-09-10T05:49:07.394Z,101435.00
2022-09-10T05:51:36.697Z,101427.72
2022-09-10T05:54:06.072Z,101436.28
2022-09-10T05:56:36.400Z,101439.69
2022-09-10T05:59:06.193Z,101443.06
2022-09-10T06:01:35.604Z,101447.63
2022-09-10T06:04:04.877Z,101446.53
2022-09-10T06:06:34.042Z,101454.19
2022-09-10T06:09:02.678Z,101459.28
2022-09-10T06:11:31.199Z,101461.81
2022-09-10T06:14:01.774Z,101461.19
2022-09-10T06:16:30.261Z,101461.06
2022-09-10T06:18:59.834Z,101462.03
2022-09-10T06:21:29.628Z,101466.47
2022-09-10T06:23:59.244Z,101460.53
2022-09-10T06:26:28.301Z,101466.66
2022-09-10T06:28:56.988Z,101473.63
2022-09-10T06:31:27.640Z,101479.56
2022-09-10T06:33:56.217Z,101480.00
2022-09-10T06:36:24.737Z,101481.31
2022-09-10T06:38:58.192Z,101483.84
2022-09-10T06:41:27.135Z,101482.41
2022-09-10T06:43:56.035Z,101484.56
2022-09-10T06:47:02.309Z,101471.69
2022-09-10T06:49:14.833Z,101473.81
2022-09-10T06:51:43.692Z,101479.75
2022-09-10T06:54:13.267Z,101474.34
2022-09-10T06:56:42.968Z,101477.63
2022-09-10T06:59:14.245Z,101478.81
2022-09-10T07:01:43.386Z,101481.03
2022-09-10T07:04:12.204Z,101483.19
2022-09-10T07:06:42.398Z,101494.28
2022-09-10T07:09:10.759Z,101499.41
2022-09-10T07:11:41.677Z,101495.38
2022-09-10T07:14:14.253Z,101498.34
2022-09-10T07:16:44.783Z,101496.97
2022-09-10T07:19:15.352Z,101503.00
2022-09-10T07:21:45.545Z,101505.44
2022-09-10T07:24:15.043Z,101500.28
2022-09-10T07:26:43.817Z,101500.00
2022-09-10T07:29:13.262Z,101508.34
2022-09-10T07:32:27.126Z,101514.16
2022-09-10T07:34:56.161Z,101522.63
2022-09-10T07:37:26.346Z,101524.31
2022-09-10T07:39:55.273Z,101520.63
2022-09-10T07:42:25.514Z,101516.69
2022-09-10T07:44:54.428Z,101529.19
2022-09-10T07:47:24.067Z,101522.41
2022-09-10T07:49:53.580Z,101524.44
2022-09-10T07:52:22.351Z,101518.47
2022-09-10T07:54:52.526Z,101523.00
2022-09-10T07:57:21.650Z,101527.00
2022-09-10T07:59:50.391Z,101519.69
2022-09-10T08:02:19.265Z,101522.84
2022-09-10T08:04:47.984Z,101520.84
2022-09-10T08:07:17.676Z,101521.47
2022-09-10T08:09:46.179Z,101523.56
2022-09-10T08:12:16.669Z,101520.22
2022-09-10T08:14:45.353Z,101522.22
2022-09-10T08:17:13.824Z,101524.94
2022-09-10T08:19:43.456Z,101531.03
2022-09-10T08:22:13.659Z,101528.34
2022-09-10T08:24:42.645Z,101526.78
2022-09-10T08:27:11.723Z,101522.38
2022-09-10T08:29:42.240Z,101521.31
2022-09-10T08:32:13.201Z,101518.47
2022-09-10T08:34:42.235Z,101515.22
2022-09-10T08:37:10.766Z,101512.09
2022-09-10T08:39:40.025Z,101511.84
2022-09-10T08:42:17.607Z,101523.31
2022-09-10T08:44:58.495Z,101523.81
2022-09-10T08:47:36.355Z,101522.13
2022-09-10T08:50:23.884Z,101523.28
2022-09-10T08:52:59.585Z,101520.53
2022-09-10T08:55:33.292Z,101524.16
2022-09-10T08:58:11.881Z,101528.03
2022-09-10T09:00:46.100Z,101529.72
2022-09-10T09:03:21.625Z,101532.75
2022-09-10T09:06:01.134Z,101535.03
2022-09-10T09:08:33.094Z,101508.13
2022-09-10T09:11:12.729Z,101503.91
2022-09-10T09:14:03.401Z,101478.81
2022-09-10T09:16:55.188Z,101442.31
2022-09-10T09:19:33.705Z,101448.34
2022-09-10T09:22:10.186Z,101456.72
2022-09-10T09:24:50.535Z,101465.66
2022-09-10T09:27:20.554Z,101456.13
2022-09-10T09:29:56.195Z,101464.69
2022-09-10T09:32:30.390Z,101472.44
2022-09-10T09:35:06.421Z,101478.81
2022-09-10T09:37:38.489Z,101466.88
2022-09-10T09:40:16.713Z,101459.25
2022-09-10T09:42:53.046Z,101459.19
2022-09-10T09:45:28.535Z,101466.16
2022-09-10T09:48:00.425Z,101471.66
2022-09-10T09:50:33.833Z,101485.56
2022-09-10T09:53:02.446Z,101490.91
2022-09-10T09:55:36.004Z,101495.69
2022-09-10T09:58:39.535Z,101498.09
2022-09-10T10:01:20.650Z,101502.38
2022-09-10T10:04:04.710Z,101489.50
2022-09-10T10:06:35.961Z,101484.19
2022-09-10T10:09:07.733Z,101497.31
2022-09-10T10:11:47.589Z,101499.66
2022-09-10T10:14:25.695Z,101496.88
2022-09-10T10:17:00.027Z,101490.25
2022-09-10T10:19:35.574Z,101487.03
2022-09-10T10:22:26.420Z,101475.38
2022-09-10T10:24:55.511Z,101464.53
2022-09-10T10:27:33.028Z,101462.97
2022-09-10T10:30:06.297Z,101461.00
2022-09-10T10:32:47.837Z,101466.31
2022-09-10T10:35:31.504Z,101461.16
2022-09-10T10:38:23.034Z,101455.81
2022-09-10T10:41:30.104Z,101449.81
2022-09-10T10:44:21.977Z,101442.34
2022-09-10T10:47:03.639Z,101453.38
2022-09-10T10:49:50.502Z,101446.09
2022-09-10T10:52:34.915Z,101429.53
2022-09-10T10:55:14.592Z,101415.69
2022-09-10T10:57:58.261Z,101401.22
2022-09-10T11:00:27.913Z,101397.78
2022-09-10T11:03:04.719Z,101414.84
2022-09-10T11:05:38.806Z,101419.63
2022-09-10T11:08:15.549Z,101428.13
2022-09-10T11:10:48.081Z,101430.13
2022-09-10T11:13:22.513Z,101427.38
2022-09-10T11:15:59.685Z,101420.56
2022-09-10T11:18:34.588Z,101419.78
2022-09-10T11:21:12.174Z,101405.06
2022-09-10T11:23:49.249Z,101418.75
2022-09-10T11:26:23.103Z,101428.88
2022-09-10T11:29:00.746Z,101433.69
2022-09-10T11:31:34.346Z,101446.06
2022-09-10T11:34:07.252Z,101436.22
2022-09-10T11:36:43.908Z,101407.94
2022-09-10T11:39:20.998Z,101390.22
2022-09-10T11:41:53.165Z,101383.63
2022-09-10T11:44:46.794Z,101379.97
2022-09-10T11:47:21.793Z,101380.63
2022-09-10T11:49:54.262Z,101381.75
2022-09-10T11:52:26.224Z,101370.56
2022-09-10T11:54:57.635Z,101368.72
2022-09-10T11:57:35.568Z,101374.16
2022-09-10T12:00:12.142Z,101369.72
2022-09-10T12:03:21.414Z,101371.44
2022-09-10T12:06:14.924Z,101372.00
2022-09-10T12:09:02.722Z,101370.72
2022-09-10T12:11:44.745Z,101372.00
2022-09-10T12:14:18.972Z,101371.81
2022-09-10T12:16:51.795Z,101368.38
2022-09-10T12:19:29.926Z,101369.56
2022-09-10T12:22:03.495Z,101367.25
2022-09-10T12:24:34.987Z,101366.25
2022-09-10T12:27:08.853Z,101364.50
2022-09-10T12:29:41.305Z,101381.47
2022-09-10T12:32:28.863Z,101373.41
2022-09-10T12:35:45.802Z,101372.31
2022-09-10T12:38:52.167Z,101367.28
2022-09-10T12:41:58.924Z,101367.44
2022-09-10T12:44:48.663Z,101366.34
2022-09-10T12:47:34.659Z,101367.47
2022-09-10T12:50:07.722Z,101375.53
2022-09-10T12:52:53.412Z,101374.19
2022-09-10T12:55:36.988Z,101374.47
2022-09-10T12:58:19.063Z,101371.00
2022-09-10T13:01:06.487Z,101375.75
2022-09-10T13:03:35.546Z,101377.44
2022-09-10T13:06:07.676Z,101373.91
2022-09-10T13:08:43.377Z,101371.66
2022-09-10T13:11:20.198Z,101374.16
2022-09-10T13:13:59.707Z,101366.69
2022-09-10T13:16:42.404Z,101368.84
2022-09-10T13:19:49.357Z,101367.50
2022-09-10T13:22:55.531Z,101379.94
2022-09-10T13:25:46.782Z,101376.41
2022-09-10T13:28:53.255Z,101379.16
2022-09-10T13:31:26.619Z,101382.53
2022-09-10T13:34:24.790Z,101371.44
2022-09-10T13:37:10.220Z,101372.41
2022-09-10T13:40:09.494Z,101371.75
2022-09-10T13:42:56.205Z,101365.16
2022-09-10T13:45:29.768Z,101358.47
2022-09-10T13:48:03.823Z,101359.50
2022-09-10T13:50:41.790Z,101355.75
2022-09-10T13:53:14.858Z,101347.38
2022-09-10T13:55:58.995Z,101350.56
2022-09-10T13:58:31.740Z,101349.72
2022-09-10T14:01:03.741Z,101356.66
2022-09-10T14:03:34.842Z,101360.53
2022-09-10T14:06:09.379Z,101349.72
2022-09-10T14:08:45.398Z,101347.38
2022-09-10T14:11:20.267Z,101333.31
2022-09-10T14:13:55.833Z,101331.84
2022-09-10T14:16:30.220Z,101326.28
2022-09-10T14:19:04.512Z,101327.94
2022-09-10T14:21:35.623Z,101329.91
2022-09-10T14:24:04.417Z,101326.75
2022-09-10T14:26:35.077Z,101326.78
2022-09-10T14:29:25.469Z,101326.50
2022-09-10T14:31:55.089Z,101319.78
2022-09-10T14:34:33.673Z,101321.97
2022-09-10T14:37:24.600Z,101326.06
2022-09-10T14:39:53.571Z,101328.31
2022-09-10T14:42:28.373Z,101329.53
2022-09-10T14:44:56.777Z,101322.75
2022-09-10T14:47:35.140Z,101321.78
2022-09-10T14:50:31.542Z,101328.31
2022-09-10T14:53:02.317Z,101315.16
2022-09-10T14:55:34.227Z,101322.13
2022-09-10T14:58:04.014Z,101318.72
2022-09-10T15:00:33.191Z,101321.09
2022-09-10T15:03:04.807Z,101312.94
2022-09-10T15:05:33.431Z,101306.06
2022-09-10T15:08:04.686Z,101311.28
2022-09-10T15:10:34.271Z,101317.78
2022-09-10T15:13:09.469Z,101320.88
2022-09-10T15:15:39.298Z,101318.84
2022-09-10T15:18:13.944Z,101309.59
2022-09-10T15:20:43.010Z,101320.75
2022-09-10T15:23:13.137Z,101322.91
2022-09-10T15:25:46.735Z,101329.78
2022-09-10T15:28:15.687Z,101332.28
2022-09-10T15:30:44.579Z,101333.59
2022-09-10T15:33:15.414Z,101326.06
2022-09-10T15:35:47.361Z,101326.22
2022-09-10T15:38:21.542Z,101319.19
2022-09-10T15:40:52.409Z,101317.31
2022-09-10T15:43:24.299Z,101317.03
2022-09-10T15:45:53.807Z,101318.28
2022-09-10T15:48:23.384Z,101304.34
2022-09-10T15:50:51.833Z,101299.72
2022-09-10T15:53:22.233Z,101305.63
2022-09-10T15:55:51.046Z,101305.19
2022-09-10T15:58:20.351Z,101303.53
2022-09-10T16:00:49.254Z,101303.72
2022-09-10T16:03:18.751Z,101310.22
2022-09-10T16:05:47.274Z,101306.06
2022-09-10T16:08:15.866Z,101310.38
2022-09-10T16:10:46.076Z,101307.09
2022-09-10T16:13:14.661Z,101315.44
2022-09-10T16:15:43.272Z,101309.53
2022-09-10T16:18:13.303Z,101303.91
2022-09-10T16:20:43.719Z,101296.94
2022-09-10T16:23:12.804Z,101306.88
2022-09-10T16:25:41.731Z,101316.47
2022-09-10T16:28:11.635Z,101313.97
2022-09-10T16:30:40.391Z,101305.22
2022-09-10T16:33:09.509Z,101308.06
2022-09-10T16:35:38.061Z,101312.91
2022-09-10T16:38:06.447Z,101316.06
2022-09-10T16:40:34.938Z,101312.13
2022-09-10T16:43:03.274Z,101318.19
2022-09-10T16:45:33.404Z,101310.47
2022-09-10T16:48:04.467Z,101308.06
2022-09-10T16:50:34.462Z,101306.63
2022-09-10T16:53:02.977Z,101309.63
2022-09-10T16:55:31.807Z,101304.75
2022-09-10T16:58:00.414Z,101307.66
2022-09-10T17:00:29.265Z,101316.88
2022-09-10T17:03:12.583Z,101324.38
2022-09-10T17:05:41.642Z,101328.56
2022-09-10T17:08:11.347Z,101314.38
2022-09-10T17:10:40.926Z,101323.34
2022-09-10T17:13:11.717Z,101314.09
2022-09-10T17:15:43.546Z,101317.69
2022-09-10T17:18:13.731Z,101324.81
2022-09-10T17:20:43.058Z,101316.06
2022-09-10T17:23:13.649Z,101318.56
2022-09-10T17:25:42.107Z,101318.97
2022-09-10T17:28:10.792Z,101312.97
2022-09-10T17:30:39.565Z,101319.19
2022-09-10T17:33:09.103Z,101331.72
2022-09-10T17:35:40.358Z,101320.75
2022-09-10T17:38:11.647Z,101337.06
2022-09-10T17:40:40.209Z,101345.50
2022-09-10T17:43:10.107Z,101346.38
2022-09-10T17:45:38.661Z,101354.31
2022-09-10T17:48:07.054Z,101361.66
2022-09-10T17:50:35.882Z,101355.75
2022-09-10T17:53:07.397Z,101349.66
2022-09-10T17:55:36.527Z,101348.13
2022-09-10T17:58:04.828Z,101351.56
2022-09-10T18:00:33.908Z,101348.72
2022-09-10T18:03:03.929Z,101356.31
2022-09-10T18:05:32.363Z,101366.06
2022-09-10T18:08:00.910Z,101373.00
2022-09-10T18:10:31.281Z,101385.03
2022-09-10T18:13:01.689Z,101385.19
2022-09-10T18:15:31.891Z,101389.75
2022-09-10T18:18:01.646Z,101394.97
2022-09-10T18:20:32.288Z,101411.00
2022-09-10T18:23:02.306Z,101401.03
2022-09-10T18:25:33.124Z,101403.97
2022-09-10T18:28:03.256Z,101399.50
2022-09-10T18:30:31.973Z,101411.56
2022-09-10T18:33:00.971Z,101411.28
2022-09-10T18:35:30.590Z,101413.69
2022-09-10T18:37:59.621Z,101408.34
2022-09-10T18:40:28.051Z,101413.00
2022-09-10T18:43:00.273Z,101417.03
2022-09-10T18:45:29.866Z,101416.59
2022-09-10T18:47:58.467Z,101415.34
2022-09-10T18:50:27.938Z,101419.81
2022-09-10T18:53:02.219Z,101421.19
2022-09-10T18:55:31.215Z,101431.00
2022-09-10T18:58:04.069Z,101441.06
2022-09-10T19:00:33.615Z,101441.19
2022-09-10T19:03:03.450Z,101450.00
2022-09-10T19:05:32.307Z,101437.84
2022-09-10T19:08:00.702Z,101436.03
2022-09-10T19:10:30.498Z,101447.75
2022-09-10T19:13:01.113Z,101453.00
2022-09-10T19:15:32.311Z,101454.81
2022-09-10T19:18:05.733Z,101465.13
2022-09-10T19:20:38.423Z,101462.13
2022-09-10T19:23:09.688Z,101459.50
2022-09-10T19:25:38.171Z,101459.81
2022-09-10T19:28:06.607Z,101465.72
2022-09-10T19:30:40.367Z,101473.13
2022-09-10T19:33:08.730Z,101468.94
2022-09-10T19:35:37.020Z,101474.22
2022-09-10T19:38:33.866Z,101467.75
2022-09-10T19:41:10.560Z,101474.56
2022-09-10T19:43:41.896Z,101476.34
2022-09-10T19:46:15.612Z,101485.78
2022-09-10T19:49:08.321Z,101485.28
2022-09-10T19:51:48.658Z,101483.81
2022-09-10T19:54:17.895Z,101492.75
2022-09-10T19:57:02.017Z,101497.38
2022-09-10T19:59:30.557Z,101495.59
2022-09-10T20:02:01.864Z,101491.50
2022-09-10T20:04:30.654Z,101488.72
2022-09-10T20:06:59.723Z,101493.78
2022-09-10T20:09:29.108Z,101494.94
2022-09-10T20:11:58.551Z,101497.13
2022-09-10T20:14:27.062Z,101496.25
2022-09-10T20:16:57.578Z,101497.13
2022-09-10T20:19:27.558Z,101494.63
2022-09-10T20:21:55.993Z,101491.13
2022-09-10T20:24:24.776Z,101484.50
2022-09-10T20:26:53.608Z,101495.41
2022-09-10T20:29:23.897Z,101485.06
2022-09-10T20:31:53.095Z,101492.38
2022-09-10T20:34:23.382Z,101483.84
2022-09-10T20:36:56.537Z,101483.53
2022-09-10T20:39:26.231Z,101484.47
2022-09-10T20:41:55.664Z,101481.97
2022-09-10T20:44:24.329Z,101481.72
2022-09-10T20:46:53.854Z,101482.09
2022-09-10T20:49:23.519Z,101484.84
2022-09-10T20:51:52.723Z,101473.78
2022-09-10T20:54:22.655Z,101487.97
2022-09-10T20:56:51.370Z,101499.59
2022-09-10T20:59:21.528Z,101502.47
2022-09-10T21:01:52.505Z,101487.38
2022-09-10T21:04:22.130Z,101484.03
2022-09-10T21:06:50.623Z,101487.38
2022-09-10T21:09:19.256Z,101486.34
2022-09-10T21:11:49.410Z,101482.44
2022-09-10T21:14:18.842Z,101484.13
2022-09-10T21:16:47.602Z,101491.41
2022-09-10T21:19:18.915Z,101492.31
2022-09-10T21:21:49.244Z,101490.88
2022-09-10T21:24:22.554Z,101486.16
2022-09-10T21:26:53.913Z,101482.16
2022-09-10T21:29:24.012Z,101485.28
2022-09-10T21:31:54.854Z,101479.94
2022-09-10T21:34:23.846Z,101475.50
2022-09-10T21:36:52.161Z,101469.69
2022-09-10T21:39:20.506Z,101481.59
2022-09-10T21:41:52.184Z,101473.97
2022-09-10T21:44:25.153Z,101479.19
2022-09-10T21:46:55.068Z,101482.06
2022-09-10T21:49:24.540Z,101480.25
2022-09-10T21:51:53.540Z,101475.91
2022-09-10T21:54:24.402Z,101479.31
2022-09-10T21:56:59.130Z,101480.16
2022-09-10T21:59:27.646Z,101475.78
2022-09-10T22:01:57.500Z,101480.34
2022-09-10T22:04:25.948Z,101485.41
2022-09-10T22:06:55.158Z,101487.47
2022-09-10T22:09:24.513Z,101486.53
2022-09-10T22:11:59.822Z,101482.75
2022-09-10T22:14:28.294Z,101479.25
2022-09-10T22:16:56.635Z,101480.69
2022-09-10T22:19:26.909Z,101476.63
2022-09-10T22:21:57.460Z,101480.63
2022-09-10T22:24:26.611Z,101475.78
2022-09-10T22:26:56.736Z,101488.22
2022-09-10T22:29:25.556Z,101483.28
2022-09-10T22:31:54.197Z,101481.34
2022-09-10T22:34:22.672Z,101476.88
2022-09-10T22:36:50.988Z,101477.41
2022-09-10T22:39:25.974Z,101471.47
2022-09-10T22:41:56.668Z,101477.16
2022-09-10T22:44:25.284Z,101474.50
2022-09-10T22:46:54.575Z,101479.81
2022-09-10T22:49:23.652Z,101482.34
2022-09-10T22:51:51.988Z,101485.00
2022-09-10T22:54:21.543Z,101481.88
2022-09-10T22:56:50.434Z,101475.97
2022-09-10T22:59:20.199Z,101486.25
2022-09-10T23:01:51.648Z,101484.31
2022-09-10T23:04:22.070Z,101481.53
2022-09-10T23:06:50.947Z,101475.13
2022-09-10T23:09:21.888Z,101477.91
2022-09-10T23:11:51.864Z,101477.06
2022-09-10T23:14:25.952Z,101478.16
2022-09-10T23:16:55.617Z,101475.63
2022-09-10T23:19:33.222Z,101472.13
2022-09-10T23:22:01.725Z,101477.50
2022-09-10T23:24:30.441Z,101471.50
2022-09-10T23:27:00.133Z,101473.53
2022-09-10T23:29:31.339Z,101462.31
2022-09-10T23:31:59.842Z,101476.56
2022-09-10T23:34:28.731Z,101472.47
2022-09-10T23:36:59.449Z,101468.34
2022-09-10T23:39:29.035Z,101472.84
2022-09-10T23:41:59.553Z,101469.09
2022-09-10T23:44:28.910Z,101470.91
2022-09-10T23:47:01.178Z,101456.19
2022-09-10T23:49:35.279Z,101456.19
2022-09-10T23:52:04.001Z,101451.09
2022-09-10T23:54:34.561Z,101449.53
2022-09-10T23:57:03.894Z,101457.63
2022-09-10T23:59:34.264Z,101454.13
